sensor_id;sensor_type;location;lat;lon;timestamp;P1;durP1;ratioP1;P2;durP2;ratioP2
15281;SDS011;7742;44.320;19.820;2023-02-01T00:01:06;17.70;;;16.50;;
15281;SDS011;7742;44.320;19.820;2023-02-01T00:03:35;17.45;;;16.35;;
15281;SDS011;7742;44.320;19.820;2023-02-01T00:06:02;17.60;;;16.50;;
15281;SDS011;7742;44.320;19.820;2023-02-01T00:08:30;17.33;;;16.30;;
15281;SDS011;7742;44.320;19.820;2023-02-01T00:10:58;17.33;;;16.23;;
15281;SDS011;7742;44.320;19.820;2023-02-01T00:13:27;16.30;;;15.40;;
15281;SDS011;7742;44.320;19.820;2023-02-01T00:15:55;17.48;;;16.38;;
15281;SDS011;7742;44.320;19.820;2023-02-01T00:18:28;17.23;;;16.13;;
15281;SDS011;7742;44.320;19.820;2023-02-01T00:20:57;17.70;;;16.50;;
15281;SDS011;7742;44.320;19.820;2023-02-01T00:23:24;17.77;;;16.60;;
15281;SDS011;7742;44.320;19.820;2023-02-01T00:25:52;17.77;;;16.67;;
15281;SDS011;7742;44.320;19.820;2023-02-01T00:28:20;17.20;;;16.20;;
15281;SDS011;7742;44.320;19.820;2023-02-01T00:30:47;17.50;;;16.40;;
15281;SDS011;7742;44.320;19.820;2023-02-01T00:33:22;17.30;;;16.10;;
15281;SDS011;7742;44.320;19.820;2023-02-01T00:35:49;16.90;;;15.90;;
15281;SDS011;7742;44.320;19.820;2023-02-01T00:38:18;17.17;;;16.08;;
15281;SDS011;7742;44.320;19.820;2023-02-01T00:40:45;17.17;;;16.17;;
15281;SDS011;7742;44.320;19.820;2023-02-01T00:43:12;16.63;;;15.63;;
15281;SDS011;7742;44.320;19.820;2023-02-01T00:45:40;17.35;;;16.25;;
15281;SDS011;7742;44.320;19.820;2023-02-01T00:48:07;17.38;;;16.27;;
15281;SDS011;7742;44.320;19.820;2023-02-01T00:50:34;17.10;;;16.00;;
15281;SDS011;7742;44.320;19.820;2023-02-01T00:53:10;16.70;;;15.60;;
15281;SDS011;7742;44.320;19.820;2023-02-01T00:55:39;16.57;;;15.57;;
15281;SDS011;7742;44.320;19.820;2023-02-01T00:58:06;16.45;;;15.55;;
15281;SDS011;7742;44.320;19.820;2023-02-01T01:00:34;16.33;;;15.40;;
15281;SDS011;7742;44.320;19.820;2023-02-01T01:03:01;16.42;;;15.43;;
15281;SDS011;7742;44.320;19.820;2023-02-01T01:05:42;16.38;;;15.32;;
15281;SDS011;7742;44.320;19.820;2023-02-01T01:08:10;15.57;;;14.68;;
15281;SDS011;7742;44.320;19.820;2023-02-01T01:10:38;15.82;;;14.73;;
15281;SDS011;7742;44.320;19.820;2023-02-01T01:13:06;16.67;;;15.68;;
15281;SDS011;7742;44.320;19.820;2023-02-01T01:15:35;16.63;;;15.52;;
15281;SDS011;7742;44.320;19.820;2023-02-01T01:18:02;16.20;;;15.20;;
15281;SDS011;7742;44.320;19.820;2023-02-01T01:20:30;16.00;;;15.02;;
15281;SDS011;7742;44.320;19.820;2023-02-01T01:22:57;16.73;;;15.75;;
15281;SDS011;7742;44.320;19.820;2023-02-01T01:25:24;16.95;;;15.93;;
15281;SDS011;7742;44.320;19.820;2023-02-01T01:27:53;16.73;;;15.75;;
15281;SDS011;7742;44.320;19.820;2023-02-01T01:30:20;16.50;;;15.60;;
15281;SDS011;7742;44.320;19.820;2023-02-01T01:32:48;16.58;;;15.68;;
15281;SDS011;7742;44.320;19.820;2023-02-01T01:35:15;17.30;;;16.30;;
15281;SDS011;7742;44.320;19.820;2023-02-01T01:37:42;16.25;;;15.35;;
15281;SDS011;7742;44.320;19.820;2023-02-01T01:40:11;16.95;;;15.95;;
15281;SDS011;7742;44.320;19.820;2023-02-01T01:42:39;16.90;;;15.80;;
15281;SDS011;7742;44.320;19.820;2023-02-01T01:45:12;16.98;;;15.98;;
15281;SDS011;7742;44.320;19.820;2023-02-01T01:47:48;16.60;;;15.68;;
15281;SDS011;7742;44.320;19.820;2023-02-01T01:50:18;17.30;;;16.20;;
15281;SDS011;7742;44.320;19.820;2023-02-01T01:52:48;16.92;;;15.93;;
15281;SDS011;7742;44.320;19.820;2023-02-01T01:55:16;17.17;;;16.17;;
15281;SDS011;7742;44.320;19.820;2023-02-01T01:57:46;17.30;;;16.30;;
15281;SDS011;7742;44.320;19.820;2023-02-01T02:00:17;17.00;;;16.00;;
15281;SDS011;7742;44.320;19.820;2023-02-01T02:02:46;16.98;;;16.08;;
15281;SDS011;7742;44.320;19.820;2023-02-01T02:05:14;17.05;;;16.05;;
15281;SDS011;7742;44.320;19.820;2023-02-01T02:07:43;16.92;;;15.93;;
15281;SDS011;7742;44.320;19.820;2023-02-01T02:10:13;17.63;;;16.50;;
15281;SDS011;7742;44.320;19.820;2023-02-01T02:12:42;17.05;;;16.05;;
15281;SDS011;7742;44.320;19.820;2023-02-01T02:15:11;16.98;;;16.02;;
15281;SDS011;7742;44.320;19.820;2023-02-01T02:17:42;17.08;;;15.98;;
15281;SDS011;7742;44.320;19.820;2023-02-01T02:20:36;16.33;;;15.32;;
15281;SDS011;7742;44.320;19.820;2023-02-01T02:23:27;16.73;;;15.80;;
15281;SDS011;7742;44.320;19.820;2023-02-01T02:26:11;16.83;;;15.82;;
15281;SDS011;7742;44.320;19.820;2023-02-01T02:32:27;16.45;;;15.55;;
15281;SDS011;7742;44.320;19.820;2023-02-01T02:35:15;16.63;;;15.73;;
15281;SDS011;7742;44.320;19.820;2023-02-01T02:37:50;16.73;;;15.73;;
15281;SDS011;7742;44.320;19.820;2023-02-01T02:40:21;16.80;;;15.82;;
15281;SDS011;7742;44.320;19.820;2023-02-01T02:42:53;16.38;;;15.57;;
15281;SDS011;7742;44.320;19.820;2023-02-01T02:45:42;17.00;;;15.95;;
15281;SDS011;7742;44.320;19.820;2023-02-01T02:48:33;16.42;;;15.52;;
15281;SDS011;7742;44.320;19.820;2023-02-01T02:51:06;16.90;;;15.90;;
15281;SDS011;7742;44.320;19.820;2023-02-01T02:53:52;16.70;;;15.70;;
15281;SDS011;7742;44.320;19.820;2023-02-01T02:56:40;16.27;;;15.38;;
15281;SDS011;7742;44.320;19.820;2023-02-01T02:59:30;16.63;;;15.73;;
15281;SDS011;7742;44.320;19.820;2023-02-01T03:02:29;16.70;;;15.60;;
15281;SDS011;7742;44.320;19.820;2023-02-01T03:05:15;17.15;;;16.23;;
15281;SDS011;7742;44.320;19.820;2023-02-01T03:07:48;16.70;;;15.80;;
15281;SDS011;7742;44.320;19.820;2023-02-01T03:10:24;16.88;;;15.88;;
15281;SDS011;7742;44.320;19.820;2023-02-01T03:15:59;16.83;;;15.73;;
15281;SDS011;7742;44.320;19.820;2023-02-01T03:18:32;17.48;;;16.30;;
15281;SDS011;7742;44.320;19.820;2023-02-01T03:21:03;17.00;;;16.00;;
15281;SDS011;7742;44.320;19.820;2023-02-01T03:23:35;17.25;;;16.20;;
15281;SDS011;7742;44.320;19.820;2023-02-01T03:26:03;17.05;;;16.05;;
15281;SDS011;7742;44.320;19.820;2023-02-01T03:28:33;17.30;;;16.20;;
15281;SDS011;7742;44.320;19.820;2023-02-01T03:31:01;17.02;;;16.02;;
15281;SDS011;7742;44.320;19.820;2023-02-01T03:33:29;16.43;;;15.43;;
15281;SDS011;7742;44.320;19.820;2023-02-01T03:35:59;17.13;;;16.13;;
15281;SDS011;7742;44.320;19.820;2023-02-01T03:38:32;18.10;;;17.00;;
15281;SDS011;7742;44.320;19.820;2023-02-01T03:41:06;18.17;;;17.00;;
15281;SDS011;7742;44.320;19.820;2023-02-01T03:43:37;17.55;;;16.50;;
15281;SDS011;7742;44.320;19.820;2023-02-01T03:46:11;17.10;;;16.02;;
15281;SDS011;7742;44.320;19.820;2023-02-01T03:48:40;17.90;;;16.80;;
15281;SDS011;7742;44.320;19.820;2023-02-01T03:51:08;17.25;;;16.15;;
15281;SDS011;7742;44.320;19.820;2023-02-01T03:53:37;17.67;;;16.58;;
15281;SDS011;7742;44.320;19.820;2023-02-01T03:56:07;17.60;;;16.60;;
15281;SDS011;7742;44.320;19.820;2023-02-01T03:58:36;17.40;;;16.40;;
15281;SDS011;7742;44.320;19.820;2023-02-01T04:01:04;18.02;;;16.92;;
15281;SDS011;7742;44.320;19.820;2023-02-01T04:03:31;19.95;;;18.75;;
15281;SDS011;7742;44.320;19.820;2023-02-01T04:05:58;20.52;;;19.23;;
15281;SDS011;7742;44.320;19.820;2023-02-01T04:08:26;19.03;;;17.93;;
15281;SDS011;7742;44.320;19.820;2023-02-01T04:10:54;18.17;;;16.97;;
15281;SDS011;7742;44.320;19.820;2023-02-01T04:13:22;19.35;;;18.05;;
15281;SDS011;7742;44.320;19.820;2023-02-01T04:15:49;19.45;;;18.23;;
15281;SDS011;7742;44.320;19.820;2023-02-01T04:18:16;19.20;;;18.00;;
15281;SDS011;7742;44.320;19.820;2023-02-01T04:20:43;19.30;;;18.10;;
15281;SDS011;7742;44.320;19.820;2023-02-01T04:23:11;18.80;;;17.67;;
15281;SDS011;7742;44.320;19.820;2023-02-01T04:25:39;18.40;;;17.30;;
15281;SDS011;7742;44.320;19.820;2023-02-01T04:28:07;18.85;;;17.55;;
15281;SDS011;7742;44.320;19.820;2023-02-01T04:30:35;20.25;;;18.77;;
15281;SDS011;7742;44.320;19.820;2023-02-01T04:33:38;19.42;;;18.10;;
15281;SDS011;7742;44.320;19.820;2023-02-01T04:36:20;19.40;;;18.20;;
15281;SDS011;7742;44.320;19.820;2023-02-01T04:38:48;18.23;;;17.02;;
15281;SDS011;7742;44.320;19.820;2023-02-01T04:41:15;17.60;;;16.50;;
15281;SDS011;7742;44.320;19.820;2023-02-01T04:43:45;17.05;;;15.95;;
15281;SDS011;7742;44.320;19.820;2023-02-01T04:46:17;17.13;;;16.13;;
15281;SDS011;7742;44.320;19.820;2023-02-01T04:48:48;16.58;;;15.68;;
15281;SDS011;7742;44.320;19.820;2023-02-01T04:51:15;16.40;;;15.50;;
15281;SDS011;7742;44.320;19.820;2023-02-01T04:53:43;17.13;;;16.10;;
15281;SDS011;7742;44.320;19.820;2023-02-01T04:58:59;17.10;;;16.10;;
15281;SDS011;7742;44.320;19.820;2023-02-01T05:01:27;16.58;;;15.68;;
15281;SDS011;7742;44.320;19.820;2023-02-01T05:03:54;16.60;;;15.70;;
15281;SDS011;7742;44.320;19.820;2023-02-01T05:06:22;16.85;;;15.95;;
15281;SDS011;7742;44.320;19.820;2023-02-01T05:08:50;16.90;;;15.95;;
15281;SDS011;7742;44.320;19.820;2023-02-01T05:14:50;17.42;;;16.40;;
15281;SDS011;7742;44.320;19.820;2023-02-01T05:17:17;17.33;;;16.33;;
15281;SDS011;7742;44.320;19.820;2023-02-01T05:19:44;17.40;;;16.40;;
15281;SDS011;7742;44.320;19.820;2023-02-01T05:22:11;17.50;;;16.57;;
15281;SDS011;7742;44.320;19.820;2023-02-01T05:24:38;17.10;;;16.20;;
15281;SDS011;7742;44.320;19.820;2023-02-01T05:27:05;17.10;;;16.20;;
15281;SDS011;7742;44.320;19.820;2023-02-01T05:29:33;17.23;;;16.30;;
15281;SDS011;7742;44.320;19.820;2023-02-01T05:32:01;17.50;;;16.50;;
15281;SDS011;7742;44.320;19.820;2023-02-01T05:34:28;17.77;;;16.73;;
15281;SDS011;7742;44.320;19.820;2023-02-01T05:36:56;18.05;;;17.05;;
15281;SDS011;7742;44.320;19.820;2023-02-01T05:39:23;17.92;;;16.92;;
15281;SDS011;7742;44.320;19.820;2023-02-01T05:41:50;17.38;;;16.48;;
15281;SDS011;7742;44.320;19.820;2023-02-01T05:44:17;16.98;;;16.08;;
15281;SDS011;7742;44.320;19.820;2023-02-01T05:46:44;17.25;;;16.33;;
15281;SDS011;7742;44.320;19.820;2023-02-01T05:49:13;17.67;;;16.67;;
15281;SDS011;7742;44.320;19.820;2023-02-01T05:51:40;17.60;;;16.60;;
15281;SDS011;7742;44.320;19.820;2023-02-01T05:54:08;17.03;;;16.10;;
15281;SDS011;7742;44.320;19.820;2023-02-01T05:56:35;15.88;;;15.07;;
15281;SDS011;7742;44.320;19.820;2023-02-01T05:59:02;16.13;;;15.27;;
15281;SDS011;7742;44.320;19.820;2023-02-01T06:01:29;15.73;;;14.93;;
15281;SDS011;7742;44.320;19.820;2023-02-01T06:03:57;15.75;;;14.95;;
15281;SDS011;7742;44.320;19.820;2023-02-01T06:06:25;16.17;;;15.27;;
15281;SDS011;7742;44.320;19.820;2023-02-01T06:08:52;15.30;;;14.50;;
15281;SDS011;7742;44.320;19.820;2023-02-01T06:11:20;15.93;;;14.93;;
15281;SDS011;7742;44.320;19.820;2023-02-01T06:13:47;16.60;;;15.60;;
15281;SDS011;7742;44.320;19.820;2023-02-01T06:16:14;16.80;;;15.85;;
15281;SDS011;7742;44.320;19.820;2023-02-01T06:18:41;16.02;;;15.13;;
15281;SDS011;7742;44.320;19.820;2023-02-01T06:21:08;15.95;;;15.05;;
15281;SDS011;7742;44.320;19.820;2023-02-01T06:23:37;16.23;;;15.32;;
15281;SDS011;7742;44.320;19.820;2023-02-01T06:26:05;15.98;;;15.18;;
15281;SDS011;7742;44.320;19.820;2023-02-01T06:28:33;15.77;;;14.88;;
15281;SDS011;7742;44.320;19.820;2023-02-01T06:31:02;15.85;;;14.95;;
15281;SDS011;7742;44.320;19.820;2023-02-01T06:33:31;16.08;;;15.18;;
15281;SDS011;7742;44.320;19.820;2023-02-01T06:36:00;15.80;;;15.00;;
15281;SDS011;7742;44.320;19.820;2023-02-01T06:38:29;16.70;;;15.50;;
15281;SDS011;7742;44.320;19.820;2023-02-01T06:41:01;15.48;;;14.68;;
15281;SDS011;7742;44.320;19.820;2023-02-01T06:43:29;15.90;;;15.00;;
15281;SDS011;7742;44.320;19.820;2023-02-01T06:45:59;16.15;;;15.25;;
15281;SDS011;7742;44.320;19.820;2023-02-01T06:48:26;14.50;;;13.70;;
15281;SDS011;7742;44.320;19.820;2023-02-01T06:50:53;15.57;;;14.68;;
15281;SDS011;7742;44.320;19.820;2023-02-01T06:53:21;15.52;;;14.63;;
15281;SDS011;7742;44.320;19.820;2023-02-01T06:55:52;15.40;;;14.48;;
15281;SDS011;7742;44.320;19.820;2023-02-01T06:58:21;14.18;;;13.35;;
15281;SDS011;7742;44.320;19.820;2023-02-01T07:00:48;14.90;;;14.10;;
15281;SDS011;7742;44.320;19.820;2023-02-01T07:03:15;14.55;;;13.75;;
15281;SDS011;7742;44.320;19.820;2023-02-01T07:05:43;14.68;;;13.98;;
15281;SDS011;7742;44.320;19.820;2023-02-01T07:08:10;14.20;;;13.50;;
15281;SDS011;7742;44.320;19.820;2023-02-01T07:10:37;13.63;;;12.93;;
15281;SDS011;7742;44.320;19.820;2023-02-01T07:13:05;14.57;;;13.88;;
15281;SDS011;7742;44.320;19.820;2023-02-01T07:15:33;13.77;;;13.07;;
15281;SDS011;7742;44.320;19.820;2023-02-01T07:18:01;13.80;;;13.10;;
15281;SDS011;7742;44.320;19.820;2023-02-01T07:20:28;13.50;;;12.80;;
15281;SDS011;7742;44.320;19.820;2023-02-01T07:22:55;14.18;;;13.48;;
15281;SDS011;7742;44.320;19.820;2023-02-01T07:25:23;14.07;;;13.38;;
15281;SDS011;7742;44.320;19.820;2023-02-01T07:27:50;14.70;;;13.90;;
15281;SDS011;7742;44.320;19.820;2023-02-01T07:30:17;14.18;;;13.38;;
15281;SDS011;7742;44.320;19.820;2023-02-01T07:32:46;13.63;;;12.93;;
15281;SDS011;7742;44.320;19.820;2023-02-01T07:35:13;13.60;;;12.90;;
15281;SDS011;7742;44.320;19.820;2023-02-01T07:37:41;13.77;;;12.97;;
15281;SDS011;7742;44.320;19.820;2023-02-01T07:40:08;14.43;;;13.63;;
15281;SDS011;7742;44.320;19.820;2023-02-01T07:42:36;15.38;;;14.57;;
15281;SDS011;7742;44.320;19.820;2023-02-01T07:45:04;16.17;;;15.17;;
15281;SDS011;7742;44.320;19.820;2023-02-01T07:47:32;15.90;;;15.10;;
15281;SDS011;7742;44.320;19.820;2023-02-01T07:50:00;15.67;;;14.80;;
15281;SDS011;7742;44.320;19.820;2023-02-01T07:52:28;15.73;;;14.80;;
15281;SDS011;7742;44.320;19.820;2023-02-01T07:54:55;16.50;;;15.50;;
15281;SDS011;7742;44.320;19.820;2023-02-01T07:57:22;16.50;;;15.60;;
15281;SDS011;7742;44.320;19.820;2023-02-01T07:59:49;17.07;;;16.13;;
15281;SDS011;7742;44.320;19.820;2023-02-01T08:02:33;15.80;;;15.00;;
15281;SDS011;7742;44.320;19.820;2023-02-01T08:05:02;16.23;;;15.25;;
15281;SDS011;7742;44.320;19.820;2023-02-01T08:07:30;16.60;;;15.60;;
15281;SDS011;7742;44.320;19.820;2023-02-01T08:09:57;16.85;;;15.95;;
15281;SDS011;7742;44.320;19.820;2023-02-01T08:12:25;16.40;;;15.50;;
15281;SDS011;7742;44.320;19.820;2023-02-01T08:14:52;16.80;;;15.88;;
15281;SDS011;7742;44.320;19.820;2023-02-01T08:17:21;17.25;;;16.25;;
15281;SDS011;7742;44.320;19.820;2023-02-01T08:19:48;16.50;;;15.60;;
15281;SDS011;7742;44.320;19.820;2023-02-01T08:22:17;15.88;;;14.98;;
15281;SDS011;7742;44.320;19.820;2023-02-01T08:24:47;16.07;;;15.17;;
15281;SDS011;7742;44.320;19.820;2023-02-01T08:27:14;16.02;;;15.07;;
15281;SDS011;7742;44.320;19.820;2023-02-01T08:29:41;15.88;;;14.98;;
15281;SDS011;7742;44.320;19.820;2023-02-01T08:32:09;15.25;;;14.45;;
15281;SDS011;7742;44.320;19.820;2023-02-01T08:34:36;15.98;;;15.07;;
15281;SDS011;7742;44.320;19.820;2023-02-01T08:37:03;15.63;;;14.82;;
15281;SDS011;7742;44.320;19.820;2023-02-01T08:39:33;15.32;;;14.52;;
15281;SDS011;7742;44.320;19.820;2023-02-01T08:42:01;14.60;;;13.80;;
15281;SDS011;7742;44.320;19.820;2023-02-01T08:44:46;14.23;;;13.52;;
15281;SDS011;7742;44.320;19.820;2023-02-01T08:47:13;14.32;;;13.43;;
15281;SDS011;7742;44.320;19.820;2023-02-01T08:49:40;14.00;;;13.30;;
15281;SDS011;7742;44.320;19.820;2023-02-01T08:52:08;15.55;;;14.75;;
15281;SDS011;7742;44.320;19.820;2023-02-01T08:54:36;15.70;;;14.70;;
15281;SDS011;7742;44.320;19.820;2023-02-01T08:57:05;15.18;;;14.38;;
15281;SDS011;7742;44.320;19.820;2023-02-01T08:59:32;14.90;;;14.10;;
15281;SDS011;7742;44.320;19.820;2023-02-01T09:01:59;14.65;;;13.85;;
15281;SDS011;7742;44.320;19.820;2023-02-01T09:04:26;16.38;;;15.27;;
15281;SDS011;7742;44.320;19.820;2023-02-01T09:06:54;15.25;;;14.45;;
15281;SDS011;7742;44.320;19.820;2023-02-01T09:09:21;14.90;;;14.10;;
15281;SDS011;7742;44.320;19.820;2023-02-01T09:11:50;14.98;;;14.18;;
15281;SDS011;7742;44.320;19.820;2023-02-01T09:14:17;14.43;;;13.73;;
15281;SDS011;7742;44.320;19.820;2023-02-01T09:16:45;15.80;;;14.82;;
15281;SDS011;7742;44.320;19.820;2023-02-01T09:19:12;15.38;;;14.57;;
15281;SDS011;7742;44.320;19.820;2023-02-01T09:21:40;15.25;;;14.45;;
15281;SDS011;7742;44.320;19.820;2023-02-01T09:24:08;15.60;;;14.80;;
15281;SDS011;7742;44.320;19.820;2023-02-01T09:26:36;15.15;;;14.45;;
15281;SDS011;7742;44.320;19.820;2023-02-01T09:29:05;16.63;;;15.73;;
15281;SDS011;7742;44.320;19.820;2023-02-01T09:31:36;15.50;;;14.70;;
15281;SDS011;7742;44.320;19.820;2023-02-01T09:34:05;16.27;;;15.38;;
15281;SDS011;7742;44.320;19.820;2023-02-01T09:36:33;15.38;;;14.57;;
15281;SDS011;7742;44.320;19.820;2023-02-01T09:39:01;14.85;;;14.05;;
15281;SDS011;7742;44.320;19.820;2023-02-01T09:44:28;13.43;;;12.82;;
15281;SDS011;7742;44.320;19.820;2023-02-01T09:47:11;12.50;;;11.90;;
15281;SDS011;7742;44.320;19.820;2023-02-01T09:49:43;11.75;;;11.25;;
15281;SDS011;7742;44.320;19.820;2023-02-01T09:52:15;12.73;;;12.13;;
15281;SDS011;7742;44.320;19.820;2023-02-01T09:54:47;16.17;;;15.27;;
15281;SDS011;7742;44.320;19.820;2023-02-01T09:57:19;14.55;;;13.77;;
15281;SDS011;7742;44.320;19.820;2023-02-01T09:59:54;13.13;;;12.43;;
15281;SDS011;7742;44.320;19.820;2023-02-01T10:02:24;15.93;;;15.02;;
15281;SDS011;7742;44.320;19.820;2023-02-01T10:04:54;14.77;;;13.98;;
15281;SDS011;7742;44.320;19.820;2023-02-01T10:07:25;14.18;;;13.52;;
15281;SDS011;7742;44.320;19.820;2023-02-01T10:09:58;14.10;;;13.40;;
15281;SDS011;7742;44.320;19.820;2023-02-01T10:15:37;13.65;;;13.05;;
15281;SDS011;7742;44.320;19.820;2023-02-01T10:18:22;12.52;;;11.95;;
15281;SDS011;7742;44.320;19.820;2023-02-01T10:21:06;12.20;;;11.70;;
15281;SDS011;7742;44.320;19.820;2023-02-01T10:23:49;14.30;;;13.60;;
15281;SDS011;7742;44.320;19.820;2023-02-01T10:26:24;14.60;;;13.90;;
15281;SDS011;7742;44.320;19.820;2023-02-01T10:28:52;14.07;;;13.37;;
15281;SDS011;7742;44.320;19.820;2023-02-01T10:31:24;14.30;;;13.67;;
15281;SDS011;7742;44.320;19.820;2023-02-01T10:33:52;14.65;;;13.95;;
15281;SDS011;7742;44.320;19.820;2023-02-01T10:36:25;14.45;;;13.75;;
15281;SDS011;7742;44.320;19.820;2023-02-01T10:38:56;14.60;;;14.00;;
15281;SDS011;7742;44.320;19.820;2023-02-01T10:41:28;14.90;;;14.13;;
15281;SDS011;7742;44.320;19.820;2023-02-01T10:43:59;13.80;;;13.20;;
15281;SDS011;7742;44.320;19.820;2023-02-01T10:46:29;14.10;;;13.47;;
15281;SDS011;7742;44.320;19.820;2023-02-01T10:48:56;13.90;;;13.20;;
15281;SDS011;7742;44.320;19.820;2023-02-01T10:51:26;14.90;;;14.18;;
15281;SDS011;7742;44.320;19.820;2023-02-01T10:53:55;15.07;;;14.38;;
15281;SDS011;7742;44.320;19.820;2023-02-01T10:56:25;14.77;;;14.07;;
15281;SDS011;7742;44.320;19.820;2023-02-01T10:59:00;14.32;;;13.57;;
15281;SDS011;7742;44.320;19.820;2023-02-01T11:01:30;14.68;;;13.98;;
15281;SDS011;7742;44.320;19.820;2023-02-01T11:04:00;13.90;;;13.27;;
15281;SDS011;7742;44.320;19.820;2023-02-01T11:06:29;14.32;;;13.63;;
15281;SDS011;7742;44.320;19.820;2023-02-01T11:08:58;15.35;;;14.55;;
15281;SDS011;7742;44.320;19.820;2023-02-01T11:11:28;15.70;;;14.95;;
15281;SDS011;7742;44.320;19.820;2023-02-01T11:13:56;14.77;;;14.07;;
15281;SDS011;7742;44.320;19.820;2023-02-01T11:16:33;14.70;;;14.00;;
15281;SDS011;7742;44.320;19.820;2023-02-01T11:19:01;14.30;;;13.55;;
15281;SDS011;7742;44.320;19.820;2023-02-01T11:21:29;15.70;;;14.95;;
15281;SDS011;7742;44.320;19.820;2023-02-01T11:23:57;15.02;;;14.32;;
15281;SDS011;7742;44.320;19.820;2023-02-01T11:26:27;14.73;;;14.03;;
15281;SDS011;7742;44.320;19.820;2023-02-01T11:28:56;15.50;;;14.75;;
15281;SDS011;7742;44.320;19.820;2023-02-01T11:31:26;14.80;;;14.00;;
15281;SDS011;7742;44.320;19.820;2023-02-01T11:33:57;14.57;;;13.88;;
15281;SDS011;7742;44.320;19.820;2023-02-01T11:36:26;14.48;;;13.68;;
15281;SDS011;7742;44.320;19.820;2023-02-01T11:39:06;15.80;;;15.00;;
15281;SDS011;7742;44.320;19.820;2023-02-01T11:41:40;16.08;;;15.27;;
15281;SDS011;7742;44.320;19.820;2023-02-01T11:44:19;15.88;;;14.98;;
15281;SDS011;7742;44.320;19.820;2023-02-01T11:46:48;15.82;;;14.93;;
15281;SDS011;7742;44.320;19.820;2023-02-01T11:49:20;16.27;;;15.37;;
15281;SDS011;7742;44.320;19.820;2023-02-01T11:52:00;15.07;;;14.27;;
15281;SDS011;7742;44.320;19.820;2023-02-01T11:54:37;15.93;;;15.10;;
15281;SDS011;7742;44.320;19.820;2023-02-01T11:57:18;15.70;;;14.80;;
15281;SDS011;7742;44.320;19.820;2023-02-01T11:59:55;15.27;;;14.37;;
15281;SDS011;7742;44.320;19.820;2023-02-01T12:02:43;15.40;;;14.60;;
15281;SDS011;7742;44.320;19.820;2023-02-01T12:05:38;15.53;;;14.63;;
15281;SDS011;7742;44.320;19.820;2023-02-01T12:08:22;15.02;;;14.23;;
15281;SDS011;7742;44.320;19.820;2023-02-01T12:11:05;15.27;;;14.48;;
15281;SDS011;7742;44.320;19.820;2023-02-01T12:13:46;15.70;;;14.90;;
15281;SDS011;7742;44.320;19.820;2023-02-01T12:16:21;15.93;;;14.95;;
15281;SDS011;7742;44.320;19.820;2023-02-01T12:18:56;16.75;;;15.85;;
15281;SDS011;7742;44.320;19.820;2023-02-01T12:21:46;14.97;;;14.23;;
15281;SDS011;7742;44.320;19.820;2023-02-01T12:24:25;15.93;;;15.13;;
15281;SDS011;7742;44.320;19.820;2023-02-01T12:27:14;15.98;;;15.07;;
15281;SDS011;7742;44.320;19.820;2023-02-01T12:29:55;14.85;;;14.05;;
15281;SDS011;7742;44.320;19.820;2023-02-01T12:32:34;16.05;;;15.05;;
15281;SDS011;7742;44.320;19.820;2023-02-01T12:35:20;15.90;;;15.10;;
15281;SDS011;7742;44.320;19.820;2023-02-01T12:38:03;16.85;;;15.93;;
15281;SDS011;7742;44.320;19.820;2023-02-01T12:40:43;17.92;;;16.92;;
15281;SDS011;7742;44.320;19.820;2023-02-01T12:43:19;16.92;;;16.02;;
15281;SDS011;7742;44.320;19.820;2023-02-01T12:45:52;19.20;;;17.97;;
15281;SDS011;7742;44.320;19.820;2023-02-01T12:48:31;19.02;;;17.83;;
15281;SDS011;7742;44.320;19.820;2023-02-01T12:51:01;19.92;;;18.55;;
15281;SDS011;7742;44.320;19.820;2023-02-01T12:53:32;19.45;;;18.23;;
15281;SDS011;7742;44.320;19.820;2023-02-01T12:56:09;19.02;;;17.73;;
15281;SDS011;7742;44.320;19.820;2023-02-01T12:58:40;18.88;;;17.58;;
15281;SDS011;7742;44.320;19.820;2023-02-01T13:01:11;18.48;;;17.23;;
15281;SDS011;7742;44.320;19.820;2023-02-01T13:03:42;17.38;;;16.38;;
15281;SDS011;7742;44.320;19.820;2023-02-01T13:06:16;18.52;;;17.33;;
15281;SDS011;7742;44.320;19.820;2023-02-01T13:08:48;18.20;;;17.10;;
15281;SDS011;7742;44.320;19.820;2023-02-01T13:11:20;19.05;;;17.73;;
15281;SDS011;7742;44.320;19.820;2023-02-01T13:13:53;18.17;;;17.08;;
15281;SDS011;7742;44.320;19.820;2023-02-01T13:16:26;17.90;;;16.80;;
15281;SDS011;7742;44.320;19.820;2023-02-01T13:18:58;17.80;;;16.70;;
15281;SDS011;7742;44.320;19.820;2023-02-01T13:21:31;18.30;;;17.10;;
15281;SDS011;7742;44.320;19.820;2023-02-01T13:24:01;18.80;;;17.60;;
15281;SDS011;7742;44.320;19.820;2023-02-01T13:26:28;18.60;;;17.38;;
15281;SDS011;7742;44.320;19.820;2023-02-01T13:28:56;21.50;;;19.90;;
15281;SDS011;7742;44.320;19.820;2023-02-01T13:37:28;18.30;;;17.00;;
15281;SDS011;7742;44.320;19.820;2023-02-01T13:40:11;18.75;;;17.48;;
15281;SDS011;7742;44.320;19.820;2023-02-01T13:42:47;17.88;;;16.73;;
15281;SDS011;7742;44.320;19.820;2023-02-01T13:45:16;18.80;;;17.55;;
15281;SDS011;7742;44.320;19.820;2023-02-01T13:47:46;17.02;;;15.93;;
15281;SDS011;7742;44.320;19.820;2023-02-01T13:50:19;17.50;;;16.40;;
15281;SDS011;7742;44.320;19.820;2023-02-01T13:52:51;16.97;;;15.97;;
15281;SDS011;7742;44.320;19.820;2023-02-01T13:55:25;17.30;;;16.10;;
15281;SDS011;7742;44.320;19.820;2023-02-01T13:58:00;16.83;;;15.75;;
15281;SDS011;7742;44.320;19.820;2023-02-01T14:00:45;17.67;;;16.58;;
15281;SDS011;7742;44.320;19.820;2023-02-01T14:03:17;18.23;;;17.02;;
15281;SDS011;7742;44.320;19.820;2023-02-01T14:05:59;18.48;;;17.27;;
15281;SDS011;7742;44.320;19.820;2023-02-01T14:08:38;18.73;;;17.52;;
15281;SDS011;7742;44.320;19.820;2023-02-01T14:11:36;18.23;;;16.95;;
15281;SDS011;7742;44.320;19.820;2023-02-01T14:26:05;18.35;;;16.92;;
15281;SDS011;7742;44.320;19.820;2023-02-01T14:28:36;18.75;;;17.38;;
15281;SDS011;7742;44.320;19.820;2023-02-01T14:34:10;21.88;;;20.27;;
15281;SDS011;7742;44.320;19.820;2023-02-01T14:36:42;22.67;;;20.98;;
15281;SDS011;7742;44.320;19.820;2023-02-01T14:39:21;22.07;;;20.37;;
15281;SDS011;7742;44.320;19.820;2023-02-01T14:41:56;24.05;;;22.10;;
15281;SDS011;7742;44.320;19.820;2023-02-01T14:44:28;24.67;;;22.73;;
15281;SDS011;7742;44.320;19.820;2023-02-01T14:47:06;25.13;;;22.90;;
15281;SDS011;7742;44.320;19.820;2023-02-01T14:49:54;27.77;;;25.52;;
15281;SDS011;7742;44.320;19.820;2023-02-01T14:52:23;29.48;;;27.05;;
15281;SDS011;7742;44.320;19.820;2023-02-01T14:54:57;27.65;;;25.35;;
15281;SDS011;7742;44.320;19.820;2023-02-01T14:57:29;27.63;;;25.23;;
15281;SDS011;7742;44.320;19.820;2023-02-01T15:00:00;27.90;;;25.60;;
15281;SDS011;7742;44.320;19.820;2023-02-01T15:02:39;28.17;;;25.73;;
15281;SDS011;7742;44.320;19.820;2023-02-01T15:05:16;28.35;;;25.75;;
15281;SDS011;7742;44.320;19.820;2023-02-01T15:07:49;30.02;;;27.52;;
15281;SDS011;7742;44.320;19.820;2023-02-01T15:10:17;30.17;;;27.73;;
15281;SDS011;7742;44.320;19.820;2023-02-01T15:12:45;29.25;;;26.77;;
15281;SDS011;7742;44.320;19.820;2023-02-01T15:15:15;27.33;;;25.08;;
15281;SDS011;7742;44.320;19.820;2023-02-01T15:17:49;28.65;;;26.33;;
15281;SDS011;7742;44.320;19.820;2023-02-01T15:20:18;26.65;;;24.65;;
15281;SDS011;7742;44.320;19.820;2023-02-01T15:22:58;28.75;;;26.45;;
15281;SDS011;7742;44.320;19.820;2023-02-01T15:25:26;26.63;;;24.35;;